Time;durP1;ratioP1;P1;durP2;ratioP2;P2;SDS_P1;SDS_P2;PMS_P1;PMS_P2;Temp;Humidity;BMP_temperature;BMP_pressure;BME280_temperature;BME280_humidity;BME280_pressure;Samples;Min_cycle;Max_cycle;Signal;HPM_P1;HPM_P2
2021/11/15 00:00:01;;;;;;;;;;;;;;;-142.75;100.00;78419.13;5050253;28;20512;-66
2021/11/15 00:02:28;;;;;;;29.15;17.95;;;;;;;-142.75;100.00;78436.84;5050842;28;20003;-65
2021/11/15 00:04:53;;;;;;;28.50;18.05;;;;;;;-142.75;100.00;78436.84;5049242;28;20029;-65
2021/11/15 00:07:19;;;;;;;31.35;17.92;;;;;;;-142.75;100.00;78428.97;5051141;28;20032;-66
2021/11/15 00:09:45;;;;;;;34.15;18.40;;;;;;;-142.75;100.00;78427.00;5050453;28;20427;-66
2021/11/15 00:12:11;;;;;;;;;;;;;;;-142.75;100.00;78427.00;5051495;28;20036;-65
2021/11/15 00:14:36;;;;;;;30.98;18.17;;;;;;;-142.75;100.00;78421.09;5050709;28;20298;-66
2021/11/15 00:17:03;;;;;;;28.63;18.15;;;;;;;-142.75;100.00;78427.00;5050640;28;20025;-66
2021/11/15 00:19:28;;;;;;;;;;;;;;;-142.75;100.00;78427.00;5050954;28;20033;-66
2021/11/15 00:21:53;;;;;;;34.75;19.08;;;;;;;-142.75;100.00;78432.91;5050016;28;20382;-66
2021/11/15 00:24:18;;;;;;;30.10;18.63;;;;;;;-142.75;100.00;78428.97;5032981;28;20120;-66
2021/11/15 00:26:44;;;;;;;33.13;18.80;;;;;;;-142.75;100.00;78423.06;5050764;28;20025;-66
2021/11/15 00:29:09;;;;;;;33.55;18.38;;;;;;;-142.75;100.00;78417.16;5050558;28;20027;-66
2021/11/15 00:31:34;;;;;;;32.13;18.40;;;;;;;-142.75;100.00;78430.94;5049694;28;20478;-66
2021/11/15 00:34:00;;;;;;;30.00;19.07;;;;;;;-142.75;100.00;78436.84;5050384;28;20271;-66
2021/11/15 00:36:25;;;;;;;32.42;20.08;;;;;;;-142.75;100.00;78442.75;5050368;28;20695;-66
2021/11/15 00:38:50;;;;;;;33.63;18.83;;;;;;;-142.75;100.00;78448.66;5050253;28;20018;-66
2021/11/15 00:41:16;;;;;;;33.38;17.52;;;;;;;-142.75;100.00;78446.69;5049772;28;20743;-67
2021/11/15 00:43:42;;;;;;;29.67;17.90;;;;;;;-142.75;100.00;78452.59;5050236;28;20052;-66
2021/11/15 00:46:08;;;;;;;;;;;;;;;-142.75;100.00;78448.66;5050395;28;20505;-66
2021/11/15 00:48:33;;;;;;;28.08;17.17;;;;;;;-142.75;100.00;78448.66;5050052;28;19916;-66
2021/11/15 00:50:58;;;;;;;30.05;17.42;;;;;;;-142.75;100.00;78452.59;5049497;28;20525;-66
2021/11/15 00:53:24;;;;;;;30.00;18.33;;;;;;;-142.75;100.00;78448.66;5050209;28;20021;-66
2021/11/15 00:55:49;;;;;;;29.92;17.63;;;;;;;-142.75;100.00;78454.56;5049781;28;20024;-64
2021/11/15 00:58:15;;;;;;;34.75;19.48;;;;;;;-142.75;100.00;78440.78;5032851;28;20491;-64
2021/11/15 01:00:41;;;;;;;30.13;18.15;;;;;;;-142.75;100.00;78430.94;5037169;28;20025;-64
2021/11/15 01:03:11;;;;;;;30.20;17.60;;;;;;;-142.75;100.00;78446.69;5045495;28;20033;-64
2021/11/15 01:05:39;;;;;;;29.00;17.00;;;;;;;-142.75;100.00;78452.59;5049694;28;20024;-64
2021/11/15 01:08:05;;;;;;;29.63;17.90;;;;;;;-142.75;100.00;78442.75;5031801;28;20112;-64
2021/11/15 01:10:31;;;;;;;30.67;18.65;;;;;;;-142.75;100.00;78444.72;5045286;28;20087;-64
2021/11/15 01:12:56;;;;;;;32.70;19.27;;;;;;;-142.75;100.00;78442.75;5030079;28;20034;-65
2021/11/15 01:15:24;;;;;;;27.27;17.08;;;;;;;-142.75;100.00;78436.84;5047995;28;20028;-64
2021/11/15 01:17:51;;;;;;;29.25;16.88;;;;;;;-142.75;100.00;78436.84;5050117;28;20055;-65
2021/11/15 01:20:19;;;;;;;28.73;17.35;;;;;;;-142.75;100.00;78448.66;5048970;28;20671;-65
2021/11/15 01:22:45;;;;;;;30.02;17.50;;;;;;;-142.75;100.00;78452.59;5050133;28;20031;-65
2021/11/15 01:25:11;;;;;;;28.10;16.88;;;;;;;-142.75;100.00;78450.63;5049469;28;20016;-65
2021/11/15 01:27:37;;;;;;;;;;;;;;;-142.75;100.00;78480.16;5050036;28;20482;-65
2021/11/15 01:30:04;;;;;;;25.77;15.57;;;;;;;-142.75;100.00;78484.09;5048632;28;19958;-65
2021/11/15 01:32:30;;;;;;;27.50;16.30;;;;;;;-142.75;100.00;78486.06;5049197;28;20650;-65
2021/11/15 01:34:55;;;;;;;27.77;15.50;;;;;;;-142.75;100.00;78478.19;5049266;28;20025;-64
2021/11/15 01:37:21;;;;;;;28.08;16.73;;;;;;;-142.75;100.00;78462.44;5049226;28;20029;-65
2021/11/15 01:39:47;;;;;;;29.65;16.83;;;;;;;-142.75;100.00;78468.34;5048884;28;20020;-64
2021/11/15 01:42:12;;;;;;;25.58;15.25;;;;;;;-142.75;100.00;78470.31;5048965;28;20032;-64
2021/11/15 01:44:38;;;;;;;24.35;16.10;;;;;;;-142.75;100.00;78478.19;5048918;28;20029;-64
2021/11/15 01:47:04;;;;;;;25.70;14.52;;;;;;;-142.75;100.00;78466.38;5048815;28;20025;-64
2021/11/15 01:49:30;;;;;;;24.80;15.15;;;;;;;-142.75;100.00;78480.16;5048951;28;20436;-65
2021/11/15 01:51:55;;;;;;;24.10;14.45;;;;;;;-142.75;100.00;78474.25;5048389;28;20029;-64
2021/11/15 01:54:20;;;;;;;23.60;15.00;;;;;;;-142.75;100.00;78472.28;5048768;28;20025;-65
2021/11/15 01:56:51;;;;;;;23.13;15.10;;;;;;;-142.75;100.00;78464.41;5047538;28;20032;-65
2021/11/15 01:59:17;;;;;;;24.15;15.25;;;;;;;-142.75;100.00;78464.41;5049241;28;20029;-65
2021/11/15 02:01:42;;;;;;;25.60;15.50;;;;;;;-142.75;100.00;78470.31;5035876;28;20045;-65
2021/11/15 02:04:07;;;;;;;22.48;15.10;;;;;;;-142.75;100.00;78474.25;5028736;28;20152;-65
2021/11/15 02:06:33;;;;;;;23.10;15.43;;;;;;;-142.75;100.00;78476.22;5027772;28;20494;-64
2021/11/15 02:08:58;;;;;;;24.52;15.73;;;;;;;-142.75;100.00;78466.38;5028803;28;20060;-64
2021/11/15 02:11:24;;;;;;;29.77;15.68;;;;;;;-142.75;100.00;78470.31;5027894;28;20033;-64
2021/11/15 02:13:49;;;;;;;26.55;15.55;;;;;;;-142.75;100.00;78454.56;5028450;28;20025;-64
2021/11/15 02:16:15;;;;;;;23.98;14.48;;;;;;;-142.75;100.00;78450.63;5029135;28;20383;-64
2021/11/15 02:18:40;;;;;;;25.00;16.23;;;;;;;-142.75;100.00;78440.78;5028786;28;20028;-65
2021/11/15 02:21:08;;;;;;;24.75;15.35;;;;;;;-142.75;100.00;78438.81;5027363;28;20021;-64
2021/11/15 02:23:36;;;;;;;27.23;14.88;;;;;;;-142.75;100.00;78452.59;5028696;28;20029;-65
2021/11/15 02:26:04;;;;;;;22.42;14.77;;;;;;;-142.75;100.00;78454.56;5030958;28;20528;-64
2021/11/15 02:28:36;;;;;;;24.17;14.68;;;;;;;-142.75;100.00;78450.63;5048658;28;20078;-64
2021/11/15 02:31:03;;;;;;;22.92;15.23;;;;;;;-142.75;100.00;78462.44;5047344;28;20491;-64
2021/11/15 02:33:30;;;;;;;23.42;13.40;;;;;;;-142.75;100.00;78468.34;5048223;28;20036;-64
2021/11/15 02:35:56;;;;;;;23.55;14.00;;;;;;;-142.75;100.00;78472.28;5047870;28;20024;-64
2021/11/15 02:38:21;;;;;;;22.20;14.68;;;;;;;-142.75;100.00;78493.97;5035093;28;20025;-64
2021/11/15 02:40:47;;;;;;;19.98;13.07;;;;;;;-142.75;100.00;78482.13;5027829;28;20028;-64
2021/11/15 02:43:12;;;;;;;26.13;14.57;;;;;;;-142.75;100.00;78484.09;5010520;28;20029;-64
2021/11/15 02:45:37;;;;;;;21.75;13.65;;;;;;;-142.75;100.00;78468.34;5026797;28;20127;-64
2021/11/15 02:48:03;;;;;;;23.13;13.77;;;;;;;-142.75;100.00;78470.31;5028230;28;20028;-64
2021/11/15 02:50:30;;;;;;;25.23;14.80;;;;;;;-142.75;100.00;78470.31;5027410;28;20025;-64
2021/11/15 02:52:59;;;;;;;26.98;15.00;;;;;;;-142.75;100.00;78468.34;5028217;28;20025;-64
2021/11/15 02:55:27;;;;;;;22.88;13.20;;;;;;;-142.75;100.00;78460.47;5026318;28;20410;-64
2021/11/15 02:57:53;;;;;;;23.15;14.30;;;;;;;-142.75;100.00;78462.44;5028425;28;20021;-64
2021/11/15 03:00:33;;;;;;;24.10;14.20;;;;;;;-142.75;100.00;78460.47;5027529;28;20037;-64
2021/11/15 03:02:58;;;;;;;19.63;13.50;;;;;;;-142.75;100.00;78454.56;5027997;28;20025;-66
2021/11/15 03:05:30;;;;;;;24.70;14.07;;;;;;;-142.75;100.00;78460.47;5039838;28;20025;-67
2021/11/15 03:07:57;;;;;;;22.48;14.38;;;;;;;-142.75;100.00;78464.41;5047820;28;20025;-67
2021/11/15 03:10:22;;;;;;;;;;;;;;;-142.75;100.00;78454.56;5029614;28;20127;-65
2021/11/15 03:12:48;;;;;;;21.65;14.13;;;;;;;-142.75;100.00;78462.44;5047771;28;20313;-66
2021/11/15 03:15:21;;;;;;;;;;;;;;;-142.75;100.00;78460.47;5048410;28;20166;-67
2021/11/15 03:17:52;;;;;;;24.33;14.95;;;;;;;-142.75;100.00;78476.22;5047909;28;19920;-67
2021/11/15 03:20:18;;;;;;;25.38;14.65;;;;;;;-142.75;100.00;78478.19;5047086;28;20032;-66
2021/11/15 03:22:43;;;;;;;23.38;14.35;;;;;;;-142.75;100.00;78474.25;5047816;28;20033;-67
2021/11/15 03:25:08;;;;;;;23.75;15.27;;;;;;;-142.75;100.00;78484.09;5029607;28;20025;-67
2021/11/15 03:27:35;;;;;;;24.65;14.25;;;;;;;-142.75;100.00;78484.09;5047966;28;20395;-67
2021/11/15 03:30:01;;;;;;;25.75;14.88;;;;;;;-142.75;100.00;78484.09;5046842;28;20494;-67
2021/11/15 03:32:26;;;;;;;24.98;14.93;;;;;;;-142.75;100.00;78478.19;5029420;28;20032;-66
2021/11/15 03:34:52;;;;;;;25.80;15.20;;;;;;;-142.75;100.00;78484.09;5050741;28;20029;-67
2021/11/15 03:37:18;;;;;;;21.17;14.02;;;;;;;-142.75;100.00;78480.16;5051792;28;20478;-66
2021/11/15 03:39:43;;;;;;;;;;;;;;;-142.75;100.00;78468.34;5051077;28;20031;-66
2021/11/15 03:42:09;;;;;;;24.60;15.32;;;;;;;-142.75;100.00;78464.41;5051335;28;20289;-66
2021/11/15 03:44:34;;;;;;;25.58;15.60;;;;;;;-142.75;100.00;78464.41;5051091;28;20029;-66
2021/11/15 03:46:59;;;;;;;21.50;14.17;;;;;;;-142.75;100.00;78476.22;5051354;28;20074;-66
2021/11/15 03:49:25;;;;;;;23.77;14.53;;;;;;;-142.75;100.00;78474.25;5051256;28;20293;-66
2021/11/15 03:51:50;;;;;;;26.05;14.35;;;;;;;-142.75;100.00;78472.28;5050694;28;20540;-66
2021/11/15 03:54:15;;;;;;;30.38;13.85;;;;;;;-142.75;100.00;78482.13;5051103;28;20037;-64
2021/11/15 03:56:41;;;;;;;26.08;14.63;;;;;;;-142.75;100.00;78484.09;5051143;28;20079;-64
2021/11/15 03:59:09;;;;;;;26.20;14.57;;;;;;;-142.75;100.00;78499.88;5031651;28;20032;-66
2021/11/15 04:01:35;;;;;;;22.80;13.77;;;;;;;-142.75;100.00;78515.63;5030318;28;20411;-67
2021/11/15 04:04:01;;;;;;;23.85;13.52;;;;;;;-142.75;100.00;78499.88;5031326;28;20095;-66
2021/11/15 04:06:33;;;;;;;24.40;14.75;;;;;;;-142.75;100.00;78503.81;5031127;28;20017;-66
2021/11/15 04:09:06;;;;;;;22.05;13.70;;;;;;;-142.75;100.00;78499.88;5031021;28;20044;-66
2021/11/15 04:11:32;;;;;;;25.77;15.00;;;;;;;-142.75;100.00;78497.91;5029409;28;20021;-64
2021/11/15 04:14:03;;;;;;;24.08;13.82;;;;;;;-142.75;100.00;78513.66;5030892;28;20116;-64
2021/11/15 04:16:29;;;;;;;24.45;14.50;;;;;;;-142.75;100.00;78527.44;5030957;28;20033;-64
2021/11/15 04:18:58;;;;;;;24.92;15.43;;;;;;;-142.75;100.00;78505.78;5030697;28;20026;-66
2021/11/15 04:21:25;;;;;;;22.58;14.40;;;;;;;-142.75;100.00;78501.84;5030206;28;20052;-66
2021/11/15 04:23:50;;;;;;;24.20;14.63;;;;;;;-142.75;100.00;78507.75;5030730;28;20024;-66
2021/11/15 04:26:15;;;;;;;22.63;14.10;;;;;;;-142.75;100.00;78525.47;5031065;28;20499;-66
2021/11/15 04:28:41;;;;;;;28.10;15.18;;;;;;;-142.75;100.00;78521.53;5031070;28;20072;-66
2021/11/15 04:31:06;;;;;;;23.25;14.98;;;;;;;-142.75;100.00;78513.66;5029846;28;20040;-66
2021/11/15 04:33:32;;;;;;;26.02;15.75;;;;;;;-142.75;100.00;78507.75;5030555;28;20033;-66
2021/11/15 04:35:57;;;;;;;24.90;15.32;;;;;;;-142.75;100.00;78529.41;5030495;28;20021;-67
2021/11/15 04:38:23;;;;;;;24.85;14.85;;;;;;;-142.75;100.00;78529.41;5030656;28;20421;-66
2021/11/15 04:40:48;;;;;;;23.92;14.45;;;;;;;-142.75;100.00;78507.75;5029918;28;20041;-66
2021/11/15 04:43:14;;;;;;;26.45;15.50;;;;;;;-142.75;100.00;78505.78;5030548;28;20542;-66
2021/11/15 04:45:40;;;;;;;27.17;15.85;;;;;;;-142.75;100.00;78495.94;5029756;28;20029;-66
2021/11/15 04:48:06;;;;;;;28.42;14.80;;;;;;;-142.75;100.00;78499.88;5030252;28;20021;-67
2021/11/15 04:50:31;;;;;;;24.13;14.70;;;;;;;-142.75;100.00;78509.72;5029409;28;20017;-66
2021/11/15 04:52:58;;;;;;;26.95;16.20;;;;;;;-142.75;100.00;78513.66;5032550;28;20470;-66
2021/11/15 04:55:24;;;;;;;;;;;;;;;-142.75;100.00;78519.56;5050143;22;20049;-68
2021/11/15 04:57:50;;;;;;;24.97;14.47;;;;;;;-142.75;100.00;78535.31;4993043;28;19917;-66
2021/11/15 05:00:21;;;;;;;27.02;15.32;;;;;;;-142.75;100.00;78527.44;5011988;28;20052;-68
2021/11/15 05:02:48;;;;;;;25.35;14.55;;;;;;;-142.75;100.00;78537.28;5030137;28;20053;-68
2021/11/15 05:05:14;;;;;;;27.40;14.57;;;;;;;-142.75;100.00;78529.41;5028884;28;20495;-68
2021/11/15 05:07:40;;;;;;;23.63;13.25;;;;;;;-142.75;100.00;78511.69;5029645;28;20040;-71
2021/11/15 05:10:06;;;;;;;27.77;14.90;;;;;;;-142.75;100.00;78521.53;5029103;28;20433;-68
2021/11/15 05:12:35;;;;;;;;;;;;;;;-142.75;100.00;78525.47;5029064;28;20029;-69
2021/11/15 05:15:06;;;;;;;24.23;13.65;;;;;;;-142.75;100.00;78519.56;5029448;28;19913;-68
2021/11/15 05:17:31;;;;;;;26.90;13.90;;;;;;;-142.75;100.00;78521.53;5017506;28;20398;-68
2021/11/15 05:19:57;;;;;;;27.27;14.10;;;;;;;-142.75;100.00;78525.47;5005331;28;20039;-68
2021/11/15 05:22:22;;;;;;;24.75;14.45;;;;;;;-142.75;100.00;78519.56;5010233;28;20530;-70
2021/11/15 05:24:47;;;;;;;27.60;14.35;;;;;;;-142.75;100.00;78535.31;4992577;28;20450;-66
2021/11/15 05:27:13;;;;;;;28.52;14.18;;;;;;;-142.75;100.00;78547.13;4992227;28;20084;-70
2021/11/15 05:29:38;;;;;;;24.77;13.35;;;;;;;-142.75;100.00;78539.25;5009801;28;20080;-65
2021/11/15 05:32:04;;;;;;;21.95;12.80;;;;;;;-142.75;100.00;78543.19;5009570;28;20493;-68
2021/11/15 05:34:29;;;;;;;25.20;13.95;;;;;;;-142.75;100.00;78531.38;4992412;28;20087;-68
2021/11/15 05:36:55;;;;;;;25.60;13.50;;;;;;;-142.75;100.00;78545.16;4991992;28;20036;-67
2021/11/15 05:39:20;;;;;;;23.67;13.60;;;;;;;-142.75;100.00;78543.19;4992085;28;20033;-66
2021/11/15 05:41:45;;;;;;;25.38;13.57;;;;;;;-142.75;100.00;78551.06;4991679;28;20064;-68
2021/11/15 05:44:11;;;;;;;22.98;13.00;;;;;;;-142.75;100.00;78539.25;5009449;28;20400;-68
2021/11/15 05:46:36;;;;;;;24.13;13.13;;;;;;;-142.75;100.00;78568.78;5009391;28;20026;-68
2021/11/15 05:49:02;;;;;;;20.08;12.38;;;;;;;-142.75;100.00;78578.63;5009406;28;20022;-68
2021/11/15 05:51:27;;;;;;;21.73;12.65;;;;;;;-142.75;100.00;78582.59;5008843;28;20021;-68
2021/11/15 05:53:52;;;;;;;22.02;12.02;;;;;;;-142.75;100.00;78568.78;5009647;28;20114;-69
2021/11/15 05:56:18;;;;;;;23.38;12.98;;;;;;;-142.75;100.00;78570.75;5008645;28;20026;-65
2021/11/15 05:58:43;;;;;;;26.35;14.15;;;;;;;-142.75;100.00;78586.53;5012488;28;20032;-69
2021/11/15 06:01:08;;;;;;;23.25;13.65;;;;;;;-142.75;100.00;78582.59;5014358;28;20025;-68
2021/11/15 06:03:34;;;;;;;23.20;13.55;;;;;;;-142.75;100.00;78592.44;5008675;28;20022;-68
2021/11/15 06:05:59;;;;;;;20.02;12.75;;;;;;;-142.75;100.00;78578.63;4990914;28;20631;-69
2021/11/15 06:08:25;;;;;;;22.33;13.05;;;;;;;-142.75;100.00;78582.59;5015187;28;20047;-66
2021/11/15 06:10:50;;;;;;;21.50;13.60;;;;;;;-142.75;100.00;78574.69;5027290;28;20032;-68
2021/11/15 06:13:15;;;;;;;26.23;13.83;;;;;;;-142.75;100.00;78570.75;5028337;28;20406;-69
2021/11/15 06:15:41;;;;;;;22.67;13.02;;;;;;;-142.75;100.00;78594.41;5024350;28;20328;-68
2021/11/15 06:18:06;;;;;;;22.73;13.07;;;;;;;-142.75;100.00;78584.56;4995907;28;20037;-68
2021/11/15 06:20:32;;;;;;;24.80;13.30;;;;;;;-142.75;100.00;78584.56;5027039;28;20407;-68
2021/11/15 06:22:57;;;;;;;24.08;12.48;;;;;;;-142.75;100.00;78586.53;5027991;28;20116;-67
2021/11/15 06:25:23;;;;;;;21.85;12.80;;;;;;;-142.75;100.00;78578.63;5020077;28;20080;-69
2021/11/15 06:27:48;;;;;;;22.25;13.82;;;;;;;-142.75;100.00;78586.53;4990057;28;20022;-68
2021/11/15 06:30:16;;;;;;;26.52;13.90;;;;;;;-142.75;100.00;78584.56;5007194;28;20038;-68
2021/11/15 06:32:42;;;;;;;24.10;13.35;;;;;;;-142.75;100.00;78578.63;5007036;28;20026;-70
2021/11/15 06:35:09;;;;;;;22.42;13.55;;;;;;;-142.75;100.00;78578.63;5006254;28;20475;-68
2021/11/15 06:37:34;;;;;;;24.88;13.32;;;;;;;-142.75;100.00;78574.69;5007229;28;20473;-69
2021/11/15 06:39:59;;;;;;;25.25;14.52;;;;;;;-142.75;100.00;78586.53;5023300;28;20033;-69
2021/11/15 06:42:25;;;;;;;22.83;13.75;;;;;;;-142.75;100.00;78594.41;5027334;28;20033;-69
2021/11/15 06:44:50;;;;;;;24.73;13.77;;;;;;;-142.75;100.00;78614.09;5009480;28;20049;-68
2021/11/15 06:47:16;;;;;;;25.52;13.88;;;;;;;-142.75;100.00;78602.28;5007774;28;20288;-68
2021/11/15 06:49:41;;;;;;;23.17;13.55;;;;;;;-142.75;100.00;78600.31;5009643;28;20025;-67
2021/11/15 06:52:06;;;;;;;25.03;13.93;;;;;;;-142.75;100.00;78594.41;5026847;28;20505;-68
2021/11/15 06:54:32;;;;;;;25.05;14.98;;;;;;;-142.75;100.00;78602.28;5026881;28;20272;-68
2021/11/15 06:56:57;;;;;;;26.02;15.05;;;;;;;-142.75;100.00;78590.47;5026770;28;20026;-68
2021/11/15 06:59:23;;;;;;;26.17;15.15;;;;;;;-142.75;100.00;78598.34;5026882;28;20032;-68
2021/11/15 07:01:48;;;;;;;24.60;14.23;;;;;;;-142.75;100.00;78594.41;5025171;28;20037;-71
2021/11/15 07:04:14;;;;;;;27.83;15.75;;;;;;;-142.75;100.00;78596.38;5009827;28;20495;-70
2021/11/15 07:06:42;;;;;;;27.02;15.00;;;;;;;-142.75;100.00;78614.09;5010031;28;20482;-68
2021/11/15 07:09:08;;;;;;;28.17;16.17;;;;;;;-142.75;100.00;78618.03;5026854;28;20021;-66
2021/11/15 07:11:34;;;;;;;25.65;15.10;;;;;;;-142.75;100.00;78590.47;5026645;28;20021;-69
2021/11/15 07:14:00;;;;;;;;;;;;;;;-142.75;100.00;78584.56;5027622;28;20539;-67
2021/11/15 07:16:25;;;;;;;27.38;15.57;;;;;;;-142.75;100.00;78586.53;5025921;28;19924;-69
2021/11/15 07:18:52;;;;;;;28.00;14.07;;;;;;;-142.75;100.00;78578.63;5027334;28;20021;-69
2021/11/15 07:21:19;;;;;;;25.60;14.05;;;;;;;-142.75;100.00;78590.47;5026496;28;20052;-66
2021/11/15 07:23:45;;;;;;;24.57;14.67;;;;;;;-142.75;100.00;78592.44;5027354;28;20033;-69
2021/11/15 07:26:10;;;;;;;24.80;13.85;;;;;;;-142.75;100.00;78576.66;5027091;28;20025;-69
2021/11/15 07:28:35;;;;;;;22.75;14.75;;;;;;;-142.75;100.00;78588.50;5009387;28;20467;-69
2021/11/15 07:31:01;;;;;;;26.27;15.23;;;;;;;-142.75;100.00;78590.47;5026352;28;20017;-69
2021/11/15 07:33:27;;;;;;;30.50;17.10;;;;;;;-142.75;100.00;78604.25;5026967;28;20302;-68
2021/11/15 07:35:53;;;;;;;28.27;16.88;;;;;;;-142.75;100.00;78612.13;5026713;28;20275;-68
2021/11/15 07:38:19;;;;;;;;;;;;;;;-142.75;100.00;78588.50;5027744;28;20021;-69
2021/11/15 07:40:45;;;;;;;27.00;16.48;;;;;;;-142.75;100.00;78598.34;5025501;28;19920;-68
2021/11/15 07:43:10;;;;;;;;;;;;;;;-142.75;100.00;78584.56;5009850;28;20391;-68
2021/11/15 07:45:36;;;;;;;27.30;15.60;;;;;;;-142.75;100.00;78586.53;5026481;28;19916;-67
2021/11/15 07:48:01;;;;;;;31.30;16.35;;;;;;;-142.75;100.00;78598.34;4990024;28;20118;-68
2021/11/15 07:50:26;;;;;;;27.63;16.58;;;;;;;-142.75;100.00;78620.00;5006541;28;20022;-70
2021/11/15 07:52:52;;;;;;;28.57;17.10;;;;;;;-142.75;100.00;78602.28;4989671;28;20036;-68
2021/11/15 07:55:18;;;;;;;27.45;16.45;;;;;;;-142.75;100.00;78621.97;5007601;28;20264;-66
2021/11/15 07:57:44;;;;;;;33.38;17.27;;;;;;;-142.75;100.00;78610.16;5006984;28;20060;-69
2021/11/15 08:00:13;;;;;;;32.00;17.15;;;;;;;-142.75;100.00;78594.41;4989314;28;20053;-68
2021/11/15 08:02:39;;;;;;;30.92;18.15;;;;;;;-142.75;100.00;78594.41;5007698;28;20731;-69
2021/11/15 08:05:05;;;;;;;31.00;17.92;;;;;;;-142.75;100.00;78586.53;5027353;28;20025;-69
2021/11/15 08:07:31;;;;;;;27.42;16.58;;;;;;;-142.75;100.00;78578.63;5009112;28;20025;-69
2021/11/15 08:09:56;;;;;;;32.13;17.05;;;;;;;-142.75;100.00;78576.66;5008391;28;20769;-69
2021/11/15 08:12:22;;;;;;;28.58;16.30;;;;;;;-142.75;100.00;78570.75;5009165;28;20109;-68
2021/11/15 08:14:48;;;;;;;29.05;15.88;;;;;;;-142.75;100.00;78564.84;4989563;28;20033;-67
2021/11/15 08:17:13;;;;;;;27.98;16.27;;;;;;;-142.75;100.00;78558.94;5007119;28;20034;-69
2021/11/15 08:19:40;;;;;;;28.88;16.50;;;;;;;-142.75;100.00;78584.56;5007497;28;20025;-69
2021/11/15 08:22:07;;;;;;;31.27;17.67;;;;;;;-142.75;100.00;78578.63;5010083;28;20052;-68
2021/11/15 08:24:32;;;;;;;;;;;;;;;-142.75;100.00;78572.72;5010194;28;20033;-69
2021/11/15 08:27:02;;;;;;;29.18;16.24;;;;;;;-142.75;100.00;78570.75;5010087;28;20283;-69
2021/11/15 08:29:31;;;;;;;29.80;15.95;;;;;;;-142.75;100.00;78562.88;5009847;28;20499;-67
2021/11/15 08:32:00;;;;;;;29.63;15.90;;;;;;;-142.75;100.00;78560.91;4992347;28;20099;-68
2021/11/15 08:34:26;;;;;;;31.35;17.02;;;;;;;-142.75;100.00;78562.88;5023402;28;20095;-68
2021/11/15 08:36:52;;;;;;;;;;;;;;;-142.75;100.00;78558.94;5022249;28;20033;-69
2021/11/15 08:39:20;;;;;;;25.73;15.57;;;;;;;-142.75;100.00;78562.88;5024553;28;19913;-68
2021/11/15 08:41:49;;;;;;;28.02;16.13;;;;;;;-142.75;100.00;78578.63;5022088;28;20733;-69
2021/11/15 08:44:17;;;;;;;28.65;16.75;;;;;;;-142.75;100.00;78586.53;4997105;28;20086;-69
2021/11/15 08:46:45;;;;;;;29.35;16.55;;;;;;;-142.75;100.00;78590.47;5015065;28;20026;-69
2021/11/15 08:49:12;;;;;;;29.83;17.20;;;;;;;-142.75;100.00;78594.41;4997881;28;20116;-70
2021/11/15 08:51:39;;;;;;;37.80;18.10;;;;;;;-142.75;100.00;78598.34;5018776;28;20102;-68
2021/11/15 08:54:06;;;;;;;31.08;17.65;;;;;;;-142.75;100.00;78586.53;5004159;28;20594;-68
2021/11/15 08:56:32;;;;;;;30.27;17.67;;;;;;;-142.75;100.00;78592.44;5019948;28;20022;-68
2021/11/15 08:58:57;;;;;;;30.17;17.52;;;;;;;-142.75;100.00;78592.44;5000682;28;20029;-68
2021/11/15 09:01:25;;;;;;;31.67;17.30;;;;;;;-142.75;100.00;78612.13;5018422;28;20033;-68
2021/11/15 09:03:52;;;;;;;31.53;18.03;;;;;;;-142.75;100.00;78614.09;5012543;28;20030;-69
2021/11/15 09:06:19;;;;;;;29.42;17.23;;;;;;;-142.75;100.00;78629.84;5015894;28;20025;-69
2021/11/15 09:08:44;;;;;;;;;;;;;;;-142.75;100.00;78633.78;5003617;28;20399;-68
2021/11/15 09:11:11;;;;;;;32.72;17.05;;;;;;;-142.75;100.00;78625.91;4999687;28;19914;-67
2021/11/15 09:13:39;;;;;;;31.53;17.37;;;;;;;-142.75;100.00;78635.75;5021624;28;20032;-66
2021/11/15 09:16:05;;;;;;;32.42;18.65;;;;;;;-142.75;100.00;78653.47;5012642;28;20053;-69
2021/11/15 09:18:31;;;;;;;33.10;17.27;;;;;;;-142.75;100.00;78649.53;5002998;28;20121;-70
2021/11/15 09:20:57;;;;;;;29.92;16.52;;;;;;;-142.75;100.00;78620.00;5015020;28;20148;-70
2021/11/15 09:23:22;;;;;;;29.08;16.58;;;;;;;-142.75;100.00;78614.09;5001042;28;20080;-70
2021/11/15 09:25:48;;;;;;;29.48;16.45;;;;;;;-142.75;100.00;78606.22;4995027;28;20018;-70
2021/11/15 09:28:14;;;;;;;31.02;16.35;;;;;;;-142.75;100.00;78612.13;5017190;28;20030;-69
2021/11/15 09:30:42;;;;;;;27.83;15.55;;;;;;;-142.75;100.00;78594.41;5015887;28;20549;-69
2021/11/15 09:33:07;;;;;;;28.67;17.13;;;;;;;-142.75;100.00;78586.53;5007254;28;20029;-67
2021/11/15 09:35:34;;;;;;;28.30;16.70;;;;;;;-142.75;100.00;78590.47;5018926;28;20364;-68
2021/11/15 09:38:01;;;;;;;30.20;16.67;;;;;;;-142.75;100.00;78590.47;5018006;28;20017;-68
2021/11/15 09:40:26;;;;;;;30.13;16.45;;;;;;;-142.75;100.00;78592.44;5023962;28;20032;-70
2021/11/15 09:42:55;;;;;;;28.48;16.95;;;;;;;-142.75;100.00;78586.53;5017099;28;20022;-67
2021/11/15 09:45:21;;;;;;;30.52;15.75;;;;;;;-142.75;100.00;78596.38;5017944;28;20476;-69
2021/11/15 09:47:46;;;;;;;26.80;15.48;;;;;;;-142.75;100.00;78606.22;5001366;28;20037;-68
2021/11/15 09:50:16;;;;;;;24.55;14.65;;;;;;;-142.75;100.00;78616.06;4999611;28;20536;-69
2021/11/15 09:52:42;;;;;;;30.58;15.80;;;;;;;-142.75;100.00;78625.91;5022789;28;20049;-68
2021/11/15 09:55:07;;;;;;;32.38;16.75;;;;;;;-142.75;100.00;78637.72;5018562;28;20168;-68
2021/11/15 09:57:36;;;;;;;27.02;15.82;;;;;;;-142.75;100.00;78635.75;5020691;28;20497;-69
2021/11/15 10:00:06;;;;;;;31.70;17.27;;;;;;;-142.75;100.00;78606.22;4994989;28;20361;-69
2021/11/15 10:02:31;;;;;;;32.77;17.70;;;;;;;-142.75;100.00;78592.44;5009314;28;20379;-72
2021/11/15 10:04:56;;;;;;;28.02;16.42;;;;;;;-142.75;100.00;78596.38;5018518;28;20025;-69
2021/11/15 10:07:39;;;;;;;29.60;15.70;;;;;;;-142.75;100.00;78580.59;5015862;28;20467;-69
2021/11/15 10:10:23;;;;;;;28.35;15.85;;;;;;;-142.75;100.00;78570.75;5015937;28;20026;-70
2021/11/15 10:13:07;;;;;;;30.08;15.93;;;;;;;-142.75;100.00;78580.59;5015628;28;20022;-70
2021/11/15 10:15:53;;;;;;;28.45;15.45;;;;;;;-142.75;100.00;78598.34;5019721;28;20111;-70
2021/11/15 10:18:29;;;;;;;32.22;17.80;;;;;;;-142.75;100.00;78592.44;4994948;28;20513;-70
2021/11/15 10:20:55;;;;;;;31.52;16.50;;;;;;;-142.75;100.00;78596.38;5000456;28;20021;-71
2021/11/15 10:23:35;;;;;;;32.97;16.00;;;;;;;-142.75;100.00;78582.59;4996628;28;20044;-67
2021/11/15 10:26:11;;;;;;;31.13;15.73;;;;;;;-142.75;100.00;78584.56;5000994;28;20441;-70
2021/11/15 10:28:37;;;;;;;27.77;15.88;;;;;;;-142.75;100.00;78596.38;5017969;28;20030;-70
2021/11/15 10:31:23;;;;;;;25.17;14.98;;;;;;;-142.75;100.00;78602.28;4998292;28;20029;-70
2021/11/15 10:33:49;;;;;;;26.92;15.00;;;;;;;-142.75;100.00;78596.38;5016983;28;20080;-71
2021/11/15 10:36:14;;;;;;;27.48;15.23;;;;;;;-142.75;100.00;78586.53;5014546;28;20025;-70
2021/11/15 10:38:45;;;;;;;25.07;14.60;;;;;;;-142.75;100.00;78582.59;5021495;28;20033;-70
2021/11/15 10:41:20;;;;;;;25.80;15.43;;;;;;;-142.75;100.00;78586.53;5017111;28;20277;-69
2021/11/15 10:43:55;;;;;;;25.75;14.35;;;;;;;-142.75;100.00;78580.59;4993386;28;20060;-70
2021/11/15 10:46:32;;;;;;;27.00;15.18;;;;;;;-142.75;100.00;78598.34;5014499;28;20020;-68
2021/11/15 10:49:03;;;;;;;28.80;15.07;;;;;;;-142.75;100.00;78596.38;5015183;28;20021;-69
2021/11/15 10:51:48;;;;;;;25.63;15.37;;;;;;;-142.75;100.00;78600.31;5021150;28;20112;-67
2021/11/15 10:54:48;;;;;;;30.83;16.17;;;;;;;-142.75;100.00;78594.41;5013269;28;20043;-69
2021/11/15 10:57:19;;;;;;;30.63;16.67;;;;;;;-142.75;100.00;78618.03;5027385;22;20450;-66